sensor_id;sensor_type;location;lat;lon;timestamp;P1;durP1;ratioP1;P2;durP2;ratioP2
75768;SDS011;64379;48.888;8.330;2023-01-24T00:01:45;18.20;;;7.90;;
75768;SDS011;64379;48.888;8.330;2023-01-24T00:04:12;16.38;;;7.72;;
75768;SDS011;64379;48.888;8.330;2023-01-24T00:06:37;18.73;;;7.78;;
75768;SDS011;64379;48.888;8.330;2023-01-24T00:09:03;19.17;;;9.20;;
75768;SDS011;64379;48.888;8.330;2023-01-24T00:11:28;17.38;;;7.85;;
75768;SDS011;64379;48.888;8.330;2023-01-24T00:13:54;15.70;;;7.07;;
75768;SDS011;64379;48.888;8.330;2023-01-24T00:16:20;15.98;;;6.68;;
75768;SDS011;64379;48.888;8.330;2023-01-24T00:18:46;11.70;;;6.43;;
75768;SDS011;64379;48.888;8.330;2023-01-24T00:21:14;12.95;;;6.70;;
75768;SDS011;64379;48.888;8.330;2023-01-24T00:23:41;15.02;;;7.32;;
75768;SDS011;64379;48.888;8.330;2023-01-24T00:26:09;15.57;;;7.13;;
75768;SDS011;64379;48.888;8.330;2023-01-24T00:28:35;18.52;;;7.50;;
75768;SDS011;64379;48.888;8.330;2023-01-24T00:31:01;15.20;;;5.70;;
75768;SDS011;64379;48.888;8.330;2023-01-24T00:33:28;14.60;;;7.38;;
75768;SDS011;64379;48.888;8.330;2023-01-24T00:35:54;13.02;;;6.70;;
75768;SDS011;64379;48.888;8.330;2023-01-24T00:38:20;17.13;;;8.35;;
75768;SDS011;64379;48.888;8.330;2023-01-24T00:40:46;15.95;;;7.47;;
75768;SDS011;64379;48.888;8.330;2023-01-24T00:43:12;17.13;;;8.38;;
75768;SDS011;64379;48.888;8.330;2023-01-24T00:45:38;15.02;;;7.32;;
75768;SDS011;64379;48.888;8.330;2023-01-24T00:48:04;13.40;;;7.25;;
75768;SDS011;64379;48.888;8.330;2023-01-24T00:50:31;17.92;;;8.82;;
75768;SDS011;64379;48.888;8.330;2023-01-24T00:52:57;13.93;;;7.30;;
75768;SDS011;64379;48.888;8.330;2023-01-24T00:55:23;15.10;;;6.22;;
75768;SDS011;64379;48.888;8.330;2023-01-24T00:57:48;16.10;;;7.25;;
75768;SDS011;64379;48.888;8.330;2023-01-24T01:00:14;13.75;;;6.40;;
75768;SDS011;64379;48.888;8.330;2023-01-24T01:02:40;14.50;;;6.90;;
75768;SDS011;64379;48.888;8.330;2023-01-24T01:05:06;15.43;;;8.23;;
75768;SDS011;64379;48.888;8.330;2023-01-24T01:07:32;19.15;;;7.68;;
75768;SDS011;64379;48.888;8.330;2023-01-24T01:09:57;13.18;;;6.28;;
75768;SDS011;64379;48.888;8.330;2023-01-24T01:12:23;15.80;;;7.45;;
75768;SDS011;64379;48.888;8.330;2023-01-24T01:14:49;15.35;;;6.90;;
75768;SDS011;64379;48.888;8.330;2023-01-24T01:17:14;14.98;;;6.32;;
75768;SDS011;64379;48.888;8.330;2023-01-24T01:19:41;13.07;;;6.50;;
75768;SDS011;64379;48.888;8.330;2023-01-24T01:22:07;16.58;;;8.25;;
75768;SDS011;64379;48.888;8.330;2023-01-24T01:24:33;12.80;;;6.78;;
75768;SDS011;64379;48.888;8.330;2023-01-24T01:26:59;16.58;;;7.05;;
75768;SDS011;64379;48.888;8.330;2023-01-24T01:29:24;14.20;;;6.50;;
75768;SDS011;64379;48.888;8.330;2023-01-24T01:31:50;15.98;;;7.22;;
75768;SDS011;64379;48.888;8.330;2023-01-24T01:34:16;14.23;;;6.40;;
75768;SDS011;64379;48.888;8.330;2023-01-24T01:36:42;14.20;;;7.10;;
75768;SDS011;64379;48.888;8.330;2023-01-24T01:39:07;13.55;;;6.63;;
75768;SDS011;64379;48.888;8.330;2023-01-24T01:41:33;16.73;;;8.45;;
75768;SDS011;64379;48.888;8.330;2023-01-24T01:47:03;14.02;;;6.65;;
75768;SDS011;64379;48.888;8.330;2023-01-24T01:49:31;13.25;;;6.45;;
75768;SDS011;64379;48.888;8.330;2023-01-24T01:51:58;16.23;;;7.72;;
75768;SDS011;64379;48.888;8.330;2023-01-24T01:54:31;14.68;;;7.13;;
75768;SDS011;64379;48.888;8.330;2023-01-24T01:57:08;13.25;;;6.30;;
75768;SDS011;64379;48.888;8.330;2023-01-24T01:59:40;13.82;;;6.65;;
75768;SDS011;64379;48.888;8.330;2023-01-24T02:02:11;14.93;;;7.22;;
75768;SDS011;64379;48.888;8.330;2023-01-24T02:04:37;15.35;;;7.55;;
75768;SDS011;64379;48.888;8.330;2023-01-24T02:09:32;13.02;;;6.25;;
75768;SDS011;64379;48.888;8.330;2023-01-24T02:12:13;14.00;;;6.28;;
75768;SDS011;64379;48.888;8.330;2023-01-24T02:14:46;15.60;;;7.25;;
75768;SDS011;64379;48.888;8.330;2023-01-24T02:17:36;15.23;;;7.50;;
75768;SDS011;64379;48.888;8.330;2023-01-24T02:20:21;15.27;;;7.10;;
75768;SDS011;64379;48.888;8.330;2023-01-24T02:28:27;15.05;;;7.28;;
75768;SDS011;64379;48.888;8.330;2023-01-24T02:31:00;17.08;;;7.75;;
75768;SDS011;64379;48.888;8.330;2023-01-24T02:33:26;17.50;;;7.53;;
75768;SDS011;64379;48.888;8.330;2023-01-24T02:35:57;16.75;;;7.50;;
75768;SDS011;64379;48.888;8.330;2023-01-24T02:38:40;11.43;;;5.75;;
75768;SDS011;64379;48.888;8.330;2023-01-24T02:41:10;12.68;;;6.55;;
75768;SDS011;64379;48.888;8.330;2023-01-24T02:43:38;14.02;;;6.43;;
75768;SDS011;64379;48.888;8.330;2023-01-24T02:46:07;14.60;;;6.45;;
75768;SDS011;64379;48.888;8.330;2023-01-24T02:48:33;16.67;;;7.57;;
75768;SDS011;64379;48.888;8.330;2023-01-24T02:50:58;17.10;;;7.45;;
75768;SDS011;64379;48.888;8.330;2023-01-24T02:53:43;16.02;;;6.93;;
75768;SDS011;64379;48.888;8.330;2023-01-24T02:56:09;16.10;;;7.38;;
75768;SDS011;64379;48.888;8.330;2023-01-24T02:59:04;16.35;;;7.57;;
75768;SDS011;64379;48.888;8.330;2023-01-24T03:01:30;17.20;;;7.05;;
75768;SDS011;64379;48.888;8.330;2023-01-24T03:03:56;15.00;;;5.80;;
75768;SDS011;64379;48.888;8.330;2023-01-24T03:06:23;16.35;;;8.00;;
75768;SDS011;64379;48.888;8.330;2023-01-24T03:08:48;16.55;;;7.65;;
75768;SDS011;64379;48.888;8.330;2023-01-24T03:11:14;12.60;;;5.85;;
75768;SDS011;64379;48.888;8.330;2023-01-24T03:13:41;15.88;;;7.32;;
75768;SDS011;64379;48.888;8.330;2023-01-24T03:16:25;15.52;;;7.40;;
75768;SDS011;64379;48.888;8.330;2023-01-24T03:19:09;16.35;;;7.32;;
75768;SDS011;64379;48.888;8.330;2023-01-24T03:21:53;13.00;;;6.18;;
75768;SDS011;64379;48.888;8.330;2023-01-24T03:24:37;13.25;;;5.72;;
75768;SDS011;64379;48.888;8.330;2023-01-24T03:27:21;14.65;;;5.90;;
75768;SDS011;64379;48.888;8.330;2023-01-24T03:30:06;13.75;;;6.80;;
75768;SDS011;64379;48.888;8.330;2023-01-24T03:32:51;13.80;;;6.75;;
75768;SDS011;64379;48.888;8.330;2023-01-24T03:35:35;17.02;;;7.57;;
75768;SDS011;64379;48.888;8.330;2023-01-24T03:38:01;16.58;;;7.47;;
75768;SDS011;64379;48.888;8.330;2023-01-24T03:40:45;14.88;;;6.10;;
75768;SDS011;64379;48.888;8.330;2023-01-24T03:43:11;15.20;;;7.40;;
75768;SDS011;64379;48.888;8.330;2023-01-24T03:45:37;15.18;;;6.82;;
75768;SDS011;64379;48.888;8.330;2023-01-24T03:48:05;13.75;;;6.35;;
75768;SDS011;64379;48.888;8.330;2023-01-24T03:50:38;14.48;;;6.28;;
75768;SDS011;64379;48.888;8.330;2023-01-24T03:53:25;13.93;;;7.03;;
75768;SDS011;64379;48.888;8.330;2023-01-24T03:55:53;16.42;;;7.25;;
75768;SDS011;64379;48.888;8.330;2023-01-24T03:58:23;17.55;;;7.55;;
75768;SDS011;64379;48.888;8.330;2023-01-24T04:00:51;15.65;;;7.30;;
75768;SDS011;64379;48.888;8.330;2023-01-24T04:03:17;15.73;;;6.88;;
75768;SDS011;64379;48.888;8.330;2023-01-24T04:05:45;16.00;;;7.03;;
75768;SDS011;64379;48.888;8.330;2023-01-24T04:08:12;16.17;;;7.68;;
75768;SDS011;64379;48.888;8.330;2023-01-24T04:10:38;17.23;;;7.78;;
75768;SDS011;64379;48.888;8.330;2023-01-24T04:13:03;15.35;;;6.68;;
75768;SDS011;64379;48.888;8.330;2023-01-24T04:15:30;16.75;;;7.57;;
75768;SDS011;64379;48.888;8.330;2023-01-24T04:17:57;14.68;;;7.65;;
75768;SDS011;64379;48.888;8.330;2023-01-24T04:20:26;14.77;;;7.03;;
75768;SDS011;64379;48.888;8.330;2023-01-24T04:22:53;14.23;;;6.80;;
75768;SDS011;64379;48.888;8.330;2023-01-24T04:25:19;19.23;;;7.63;;
75768;SDS011;64379;48.888;8.330;2023-01-24T04:27:45;15.73;;;7.32;;
75768;SDS011;64379;48.888;8.330;2023-01-24T04:30:11;16.25;;;7.47;;
75768;SDS011;64379;48.888;8.330;2023-01-24T04:32:38;18.60;;;7.50;;
75768;SDS011;64379;48.888;8.330;2023-01-24T04:35:04;19.70;;;7.65;;
75768;SDS011;64379;48.888;8.330;2023-01-24T04:37:31;15.50;;;7.10;;
75768;SDS011;64379;48.888;8.330;2023-01-24T04:39:57;16.63;;;7.20;;
75768;SDS011;64379;48.888;8.330;2023-01-24T04:42:23;15.15;;;7.55;;
75768;SDS011;64379;48.888;8.330;2023-01-24T04:44:49;15.90;;;7.35;;
75768;SDS011;64379;48.888;8.330;2023-01-24T04:47:15;15.88;;;7.43;;
75768;SDS011;64379;48.888;8.330;2023-01-24T04:49:40;16.30;;;7.72;;
75768;SDS011;64379;48.888;8.330;2023-01-24T04:52:08;15.95;;;7.63;;
75768;SDS011;64379;48.888;8.330;2023-01-24T04:54:38;20.48;;;9.30;;
75768;SDS011;64379;48.888;8.330;2023-01-24T04:57:04;16.77;;;8.35;;
75768;SDS011;64379;48.888;8.330;2023-01-24T04:59:30;15.52;;;7.13;;
75768;SDS011;64379;48.888;8.330;2023-01-24T05:01:55;19.05;;;7.72;;
75768;SDS011;64379;48.888;8.330;2023-01-24T05:04:21;16.33;;;7.45;;
75768;SDS011;64379;48.888;8.330;2023-01-24T05:06:46;18.17;;;9.10;;
75768;SDS011;64379;48.888;8.330;2023-01-24T05:09:12;13.70;;;6.90;;
75768;SDS011;64379;48.888;8.330;2023-01-24T05:11:38;17.95;;;7.80;;
75768;SDS011;64379;48.888;8.330;2023-01-24T05:14:03;17.00;;;7.57;;
75768;SDS011;64379;48.888;8.330;2023-01-24T05:16:29;15.85;;;7.53;;
75768;SDS011;64379;48.888;8.330;2023-01-24T05:18:55;16.35;;;7.57;;
75768;SDS011;64379;48.888;8.330;2023-01-24T05:21:20;15.68;;;6.55;;
75768;SDS011;64379;48.888;8.330;2023-01-24T05:23:49;19.40;;;8.93;;
75768;SDS011;64379;48.888;8.330;2023-01-24T05:26:16;16.58;;;7.25;;
75768;SDS011;64379;48.888;8.330;2023-01-24T05:28:43;16.75;;;8.07;;
75768;SDS011;64379;48.888;8.330;2023-01-24T05:31:08;21.40;;;8.32;;
75768;SDS011;64379;48.888;8.330;2023-01-24T05:33:34;18.27;;;8.43;;
75768;SDS011;64379;48.888;8.330;2023-01-24T05:36:02;16.92;;;8.07;;
75768;SDS011;64379;48.888;8.330;2023-01-24T05:38:32;17.13;;;7.35;;
75768;SDS011;64379;48.888;8.330;2023-01-24T05:40:59;18.15;;;7.05;;
75768;SDS011;64379;48.888;8.330;2023-01-24T05:43:26;18.27;;;6.53;;
75768;SDS011;64379;48.888;8.330;2023-01-24T05:45:56;17.48;;;7.70;;
75768;SDS011;64379;48.888;8.330;2023-01-24T05:48:23;17.42;;;8.13;;
75768;SDS011;64379;48.888;8.330;2023-01-24T05:50:48;17.17;;;8.23;;
75768;SDS011;64379;48.888;8.330;2023-01-24T05:53:14;16.33;;;7.35;;
75768;SDS011;64379;48.888;8.330;2023-01-24T05:55:39;19.40;;;8.75;;
75768;SDS011;64379;48.888;8.330;2023-01-24T05:58:05;17.17;;;7.70;;
75768;SDS011;64379;48.888;8.330;2023-01-24T06:00:31;17.48;;;7.75;;
75768;SDS011;64379;48.888;8.330;2023-01-24T06:03:00;18.08;;;7.57;;
75768;SDS011;64379;48.888;8.330;2023-01-24T06:05:26;19.33;;;8.25;;
75768;SDS011;64379;48.888;8.330;2023-01-24T06:07:52;18.02;;;7.60;;
75768;SDS011;64379;48.888;8.330;2023-01-24T06:10:18;16.98;;;8.35;;
75768;SDS011;64379;48.888;8.330;2023-01-24T06:12:44;20.48;;;9.07;;
75768;SDS011;64379;48.888;8.330;2023-01-24T06:15:09;19.27;;;8.38;;
75768;SDS011;64379;48.888;8.330;2023-01-24T06:17:35;18.10;;;7.75;;
75768;SDS011;64379;48.888;8.330;2023-01-24T06:20:01;20.92;;;9.20;;
75768;SDS011;64379;48.888;8.330;2023-01-24T06:22:33;17.48;;;8.63;;
75768;SDS011;64379;48.888;8.330;2023-01-24T06:25:16;19.83;;;8.30;;
75768;SDS011;64379;48.888;8.330;2023-01-24T06:27:46;15.88;;;7.15;;
75768;SDS011;64379;48.888;8.330;2023-01-24T06:30:13;14.80;;;7.30;;
75768;SDS011;64379;48.888;8.330;2023-01-24T06:35:24;19.55;;;8.43;;
75768;SDS011;64379;48.888;8.330;2023-01-24T06:37:56;19.25;;;7.57;;
75768;SDS011;64379;48.888;8.330;2023-01-24T06:40:23;18.27;;;8.07;;
75768;SDS011;64379;48.888;8.330;2023-01-24T06:42:50;21.58;;;9.55;;
75768;SDS011;64379;48.888;8.330;2023-01-24T06:45:17;17.30;;;7.18;;
75768;SDS011;64379;48.888;8.330;2023-01-24T06:47:43;16.80;;;8.43;;
75768;SDS011;64379;48.888;8.330;2023-01-24T06:50:14;22.60;;;9.73;;
75768;SDS011;64379;48.888;8.330;2023-01-24T06:52:44;19.15;;;8.07;;
75768;SDS011;64379;48.888;8.330;2023-01-24T06:55:11;19.00;;;8.82;;
75768;SDS011;64379;48.888;8.330;2023-01-24T06:57:37;23.08;;;9.05;;
75768;SDS011;64379;48.888;8.330;2023-01-24T07:00:03;19.52;;;8.32;;
75768;SDS011;64379;48.888;8.330;2023-01-24T07:02:29;17.42;;;8.00;;
75768;SDS011;64379;48.888;8.330;2023-01-24T07:04:55;19.33;;;7.75;;
75768;SDS011;64379;48.888;8.330;2023-01-24T07:07:21;17.67;;;7.82;;
75768;SDS011;64379;48.888;8.330;2023-01-24T07:09:46;19.10;;;8.85;;
75768;SDS011;64379;48.888;8.330;2023-01-24T07:12:12;18.08;;;7.50;;
75768;SDS011;64379;48.888;8.330;2023-01-24T07:14:37;18.35;;;8.32;;
75768;SDS011;64379;48.888;8.330;2023-01-24T07:17:03;17.33;;;7.75;;
75768;SDS011;64379;48.888;8.330;2023-01-24T07:19:29;18.17;;;7.72;;
75768;SDS011;64379;48.888;8.330;2023-01-24T07:21:55;19.15;;;8.15;;
75768;SDS011;64379;48.888;8.330;2023-01-24T07:24:22;19.33;;;8.80;;
75768;SDS011;64379;48.888;8.330;2023-01-24T07:26:51;17.88;;;7.75;;
75768;SDS011;64379;48.888;8.330;2023-01-24T07:29:18;16.90;;;7.53;;
75768;SDS011;64379;48.888;8.330;2023-01-24T07:31:44;20.20;;;9.35;;
75768;SDS011;64379;48.888;8.330;2023-01-24T07:34:10;20.33;;;7.95;;
75768;SDS011;64379;48.888;8.330;2023-01-24T07:36:36;21.48;;;8.35;;
75768;SDS011;64379;48.888;8.330;2023-01-24T07:39:01;20.30;;;7.95;;
75768;SDS011;64379;48.888;8.330;2023-01-24T07:41:27;14.85;;;6.93;;
75768;SDS011;64379;48.888;8.330;2023-01-24T07:43:53;17.77;;;8.85;;
75768;SDS011;64379;48.888;8.330;2023-01-24T07:46:20;19.67;;;8.70;;
75768;SDS011;64379;48.888;8.330;2023-01-24T07:48:46;21.20;;;8.95;;
75768;SDS011;64379;48.888;8.330;2023-01-24T07:51:11;19.60;;;8.65;;
75768;SDS011;64379;48.888;8.330;2023-01-24T07:53:37;19.33;;;8.20;;
75768;SDS011;64379;48.888;8.330;2023-01-24T07:56:03;18.13;;;7.85;;
75768;SDS011;64379;48.888;8.330;2023-01-24T07:58:30;20.63;;;9.23;;
75768;SDS011;64379;48.888;8.330;2023-01-24T08:00:55;19.80;;;8.23;;
75768;SDS011;64379;48.888;8.330;2023-01-24T08:03:21;17.25;;;8.27;;
75768;SDS011;64379;48.888;8.330;2023-01-24T08:05:47;22.42;;;10.32;;
75768;SDS011;64379;48.888;8.330;2023-01-24T08:08:13;18.38;;;8.15;;
75768;SDS011;64379;48.888;8.330;2023-01-24T08:10:38;18.05;;;7.90;;
75768;SDS011;64379;48.888;8.330;2023-01-24T08:13:04;18.80;;;7.15;;
75768;SDS011;64379;48.888;8.330;2023-01-24T08:15:29;20.17;;;9.13;;
75768;SDS011;64379;48.888;8.330;2023-01-24T08:17:55;16.73;;;7.82;;
75768;SDS011;64379;48.888;8.330;2023-01-24T08:20:21;16.05;;;7.22;;
75768;SDS011;64379;48.888;8.330;2023-01-24T08:22:46;18.70;;;8.80;;
75768;SDS011;64379;48.888;8.330;2023-01-24T08:25:12;16.38;;;6.90;;
75768;SDS011;64379;48.888;8.330;2023-01-24T08:27:41;17.58;;;7.70;;
75768;SDS011;64379;48.888;8.330;2023-01-24T08:30:08;19.13;;;8.63;;
75768;SDS011;64379;48.888;8.330;2023-01-24T08:32:36;21.17;;;8.95;;
75768;SDS011;64379;48.888;8.330;2023-01-24T08:35:01;19.83;;;8.55;;
75768;SDS011;64379;48.888;8.330;2023-01-24T08:37:27;21.30;;;10.30;;
75768;SDS011;64379;48.888;8.330;2023-01-24T08:39:53;16.67;;;7.68;;
75768;SDS011;64379;48.888;8.330;2023-01-24T08:42:21;17.38;;;8.10;;
75768;SDS011;64379;48.888;8.330;2023-01-24T08:44:47;18.50;;;8.30;;
75768;SDS011;64379;48.888;8.330;2023-01-24T08:47:13;20.38;;;8.40;;
75768;SDS011;64379;48.888;8.330;2023-01-24T08:49:38;22.42;;;8.50;;
75768;SDS011;64379;48.888;8.330;2023-01-24T08:52:04;20.48;;;8.57;;
75768;SDS011;64379;48.888;8.330;2023-01-24T08:54:30;19.35;;;8.30;;
75768;SDS011;64379;48.888;8.330;2023-01-24T08:57:00;16.63;;;7.88;;
75768;SDS011;64379;48.888;8.330;2023-01-24T08:59:27;19.35;;;7.78;;
75768;SDS011;64379;48.888;8.330;2023-01-24T09:01:52;19.23;;;8.10;;
75768;SDS011;64379;48.888;8.330;2023-01-24T09:04:18;20.25;;;7.95;;
75768;SDS011;64379;48.888;8.330;2023-01-24T09:06:44;19.15;;;8.23;;
75768;SDS011;64379;48.888;8.330;2023-01-24T09:09:09;22.23;;;8.13;;
75768;SDS011;64379;48.888;8.330;2023-01-24T09:11:35;17.45;;;8.05;;
75768;SDS011;64379;48.888;8.330;2023-01-24T09:14:00;20.67;;;8.63;;
75768;SDS011;64379;48.888;8.330;2023-01-24T09:16:26;23.92;;;8.10;;
75768;SDS011;64379;48.888;8.330;2023-01-24T09:18:52;21.20;;;8.50;;
75768;SDS011;64379;48.888;8.330;2023-01-24T09:21:19;19.23;;;7.93;;
75768;SDS011;64379;48.888;8.330;2023-01-24T09:23:45;18.30;;;8.68;;
75768;SDS011;64379;48.888;8.330;2023-01-24T09:26:11;20.10;;;8.65;;
75768;SDS011;64379;48.888;8.330;2023-01-24T09:28:36;18.73;;;8.65;;
75768;SDS011;64379;48.888;8.330;2023-01-24T09:31:02;19.45;;;8.23;;
75768;SDS011;64379;48.888;8.330;2023-01-24T09:33:28;20.17;;;8.80;;
75768;SDS011;64379;48.888;8.330;2023-01-24T09:35:58;19.95;;;8.82;;
75768;SDS011;64379;48.888;8.330;2023-01-24T09:38:26;17.20;;;7.43;;
75768;SDS011;64379;48.888;8.330;2023-01-24T09:40:54;19.55;;;9.00;;
75768;SDS011;64379;48.888;8.330;2023-01-24T09:43:38;19.75;;;8.25;;
75768;SDS011;64379;48.888;8.330;2023-01-24T09:51:29;15.52;;;6.38;;
75768;SDS011;64379;48.888;8.330;2023-01-24T09:54:02;17.52;;;7.15;;
75768;SDS011;64379;48.888;8.330;2023-01-24T09:56:30;17.55;;;7.25;;
75768;SDS011;64379;48.888;8.330;2023-01-24T10:01:36;18.10;;;8.93;;
75768;SDS011;64379;48.888;8.330;2023-01-24T10:04:22;18.10;;;7.53;;
75768;SDS011;64379;48.888;8.330;2023-01-24T10:13:22;20.00;;;8.80;;
75768;SDS011;64379;48.888;8.330;2023-01-24T10:15:39;19.65;;;9.05;;
75768;SDS011;64379;48.888;8.330;2023-01-24T10:24:14;20.75;;;8.88;;
75768;SDS011;64379;48.888;8.330;2023-01-24T10:26:50;17.98;;;7.70;;
75768;SDS011;64379;48.888;8.330;2023-01-24T10:29:21;17.23;;;8.23;;
75768;SDS011;64379;48.888;8.330;2023-01-24T10:32:04;19.02;;;8.63;;
75768;SDS011;64379;48.888;8.330;2023-01-24T10:39:45;20.23;;;9.13;;
75768;SDS011;64379;48.888;8.330;2023-01-24T10:44:39;18.50;;;8.68;;
75768;SDS011;64379;48.888;8.330;2023-01-24T10:50:18;20.42;;;9.27;;
75768;SDS011;64379;48.888;8.330;2023-01-24T10:52:44;17.10;;;8.35;;
75768;SDS011;64379;48.888;8.330;2023-01-24T10:58:00;17.85;;;7.97;;
75768;SDS011;64379;48.888;8.330;2023-01-24T11:00:34;20.40;;;9.18;;
75768;SDS011;64379;48.888;8.330;2023-01-24T11:03:16;17.33;;;7.57;;
75768;SDS011;64379;48.888;8.330;2023-01-24T11:05:48;15.95;;;6.85;;
75768;SDS011;64379;48.888;8.330;2023-01-24T11:08:25;16.95;;;7.75;;
75768;SDS011;64379;48.888;8.330;2023-01-24T11:10:57;16.38;;;7.20;;
75768;SDS011;64379;48.888;8.330;2023-01-24T11:13:35;12.98;;;6.15;;
75768;SDS011;64379;48.888;8.330;2023-01-24T11:18:45;16.13;;;7.68;;
75768;SDS011;64379;48.888;8.330;2023-01-24T11:21:16;15.57;;;7.25;;
75768;SDS011;64379;48.888;8.330;2023-01-24T11:23:43;15.48;;;8.00;;
75768;SDS011;64379;48.888;8.330;2023-01-24T11:26:20;18.15;;;7.35;;
75768;SDS011;64379;48.888;8.330;2023-01-24T11:29:03;16.33;;;7.18;;
75768;SDS011;64379;48.888;8.330;2023-01-24T11:40:19;13.95;;;6.22;;
75768;SDS011;64379;48.888;8.330;2023-01-24T11:48:20;16.25;;;7.38;;
75768;SDS011;64379;48.888;8.330;2023-01-24T11:56:18;13.90;;;5.90;;
75768;SDS011;64379;48.888;8.330;2023-01-24T11:58:57;14.10;;;6.97;;
75768;SDS011;64379;48.888;8.330;2023-01-24T12:09:51;16.48;;;6.88;;
75768;SDS011;64379;48.888;8.330;2023-01-24T12:12:28;15.45;;;6.65;;
75768;SDS011;64379;48.888;8.330;2023-01-24T12:15:08;14.30;;;6.53;;
75768;SDS011;64379;48.888;8.330;2023-01-24T12:22:42;16.20;;;7.10;;
75768;SDS011;64379;48.888;8.330;2023-01-24T12:25:20;15.27;;;6.30;;
75768;SDS011;64379;48.888;8.330;2023-01-24T12:27:48;13.73;;;7.05;;
75768;SDS011;64379;48.888;8.330;2023-01-24T12:35:48;13.10;;;5.75;;
75768;SDS011;64379;48.888;8.330;2023-01-24T12:38:20;13.80;;;6.45;;
75768;SDS011;64379;48.888;8.330;2023-01-24T12:46:17;14.93;;;6.85;;
75768;SDS011;64379;48.888;8.330;2023-01-24T12:51:20;14.07;;;6.40;;
75768;SDS011;64379;48.888;8.330;2023-01-24T12:59:23;13.38;;;5.72;;
75768;SDS011;64379;48.888;8.330;2023-01-24T13:02:01;13.55;;;6.45;;
75768;SDS011;64379;48.888;8.330;2023-01-24T13:10:21;12.38;;;6.15;;
75768;SDS011;64379;48.888;8.330;2023-01-24T13:12:58;14.30;;;6.68;;
75768;SDS011;64379;48.888;8.330;2023-01-24T13:15:36;13.35;;;6.45;;
75768;SDS011;64379;48.888;8.330;2023-01-24T13:18:14;15.77;;;7.03;;
75768;SDS011;64379;48.888;8.330;2023-01-24T13:23:32;13.82;;;5.65;;
75768;SDS011;64379;48.888;8.330;2023-01-24T13:32:11;14.32;;;6.68;;
75768;SDS011;64379;48.888;8.330;2023-01-24T13:34:43;13.95;;;6.05;;
75768;SDS011;64379;48.888;8.330;2023-01-24T13:39:49;13.90;;;6.22;;
75768;SDS011;64379;48.888;8.330;2023-01-24T13:42:36;13.95;;;6.32;;
75768;SDS011;64379;48.888;8.330;2023-01-24T13:47:53;14.45;;;6.68;;
75768;SDS011;64379;48.888;8.330;2023-01-24T13:50:24;13.77;;;6.15;;
75768;SDS011;64379;48.888;8.330;2023-01-24T13:57:49;13.35;;;6.20;;
75768;SDS011;64379;48.888;8.330;2023-01-24T14:08:37;13.70;;;5.90;;
75768;SDS011;64379;48.888;8.330;2023-01-24T14:27:47;13.32;;;5.70;;
75768;SDS011;64379;48.888;8.330;2023-01-24T14:36:13;12.23;;;5.40;;
75768;SDS011;64379;48.888;8.330;2023-01-24T14:38:48;13.70;;;5.80;;
75768;SDS011;64379;48.888;8.330;2023-01-24T14:41:33;13.98;;;6.28;;
75768;SDS011;64379;48.888;8.330;2023-01-24T14:43:59;13.25;;;5.55;;
75768;SDS011;64379;48.888;8.330;2023-01-24T14:46:25;11.90;;;5.80;;
75768;SDS011;64379;48.888;8.330;2023-01-24T14:48:51;14.40;;;6.45;;
75768;SDS011;64379;48.888;8.330;2023-01-24T14:51:18;14.20;;;6.68;;
75768;SDS011;64379;48.888;8.330;2023-01-24T14:53:48;12.80;;;6.05;;
75768;SDS011;64379;48.888;8.330;2023-01-24T14:56:18;16.20;;;6.63;;
75768;SDS011;64379;48.888;8.330;2023-01-24T14:58:45;12.90;;;5.57;;
75768;SDS011;64379;48.888;8.330;2023-01-24T15:01:25;13.85;;;6.53;;
75768;SDS011;64379;48.888;8.330;2023-01-24T15:03:58;13.88;;;5.60;;
75768;SDS011;64379;48.888;8.330;2023-01-24T15:06:25;13.77;;;6.13;;
75768;SDS011;64379;48.888;8.330;2023-01-24T15:08:53;13.63;;;5.65;;
75768;SDS011;64379;48.888;8.330;2023-01-24T15:11:21;14.02;;;6.53;;
75768;SDS011;64379;48.888;8.330;2023-01-24T15:13:57;14.05;;;6.93;;
75768;SDS011;64379;48.888;8.330;2023-01-24T15:16:36;12.50;;;5.78;;
75768;SDS011;64379;48.888;8.330;2023-01-24T15:21:40;12.20;;;5.55;;
75768;SDS011;64379;48.888;8.330;2023-01-24T15:24:20;14.88;;;6.22;;
75768;SDS011;64379;48.888;8.330;2023-01-24T15:26:49;16.50;;;6.72;;
75768;SDS011;64379;48.888;8.330;2023-01-24T15:29:36;11.93;;;5.95;;
75768;SDS011;64379;48.888;8.330;2023-01-24T15:37:46;13.98;;;6.03;;
75768;SDS011;64379;48.888;8.330;2023-01-24T15:40:31;14.75;;;6.95;;
75768;SDS011;64379;48.888;8.330;2023-01-24T15:42:58;17.60;;;6.90;;
75768;SDS011;64379;48.888;8.330;2023-01-24T15:45:53;14.73;;;6.78;;
75768;SDS011;64379;48.888;8.330;2023-01-24T15:48:54;13.63;;;6.03;;
75768;SDS011;64379;48.888;8.330;2023-01-24T15:51:34;14.82;;;6.45;;
75768;SDS011;64379;48.888;8.330;2023-01-24T15:54:01;15.80;;;6.60;;
75768;SDS011;64379;48.888;8.330;2023-01-24T15:56:33;14.95;;;6.78;;
75768;SDS011;64379;48.888;8.330;2023-01-24T15:58:59;14.85;;;6.40;;
75768;SDS011;64379;48.888;8.330;2023-01-24T16:01:28;16.67;;;6.45;;
75768;SDS011;64379;48.888;8.330;2023-01-24T16:03:55;18.00;;;6.90;;
75768;SDS011;64379;48.888;8.330;2023-01-24T16:06:21;13.95;;;6.30;;
75768;SDS011;64379;48.888;8.330;2023-01-24T16:08:46;13.13;;;6.05;;
75768;SDS011;64379;48.888;8.330;2023-01-24T16:11:12;16.48;;;6.82;;
75768;SDS011;64379;48.888;8.330;2023-01-24T16:13:39;15.23;;;6.55;;
75768;SDS011;64379;48.888;8.330;2023-01-24T16:16:10;16.33;;;6.95;;
75768;SDS011;64379;48.888;8.330;2023-01-24T16:18:38;14.93;;;6.70;;
75768;SDS011;64379;48.888;8.330;2023-01-24T16:21:04;16.40;;;6.75;;
75768;SDS011;64379;48.888;8.330;2023-01-24T16:23:29;17.08;;;6.55;;
75768;SDS011;64379;48.888;8.330;2023-01-24T16:25:55;16.15;;;7.10;;
75768;SDS011;64379;48.888;8.330;2023-01-24T16:28:23;16.63;;;7.50;;
75768;SDS011;64379;48.888;8.330;2023-01-24T16:30:51;17.25;;;7.15;;
75768;SDS011;64379;48.888;8.330;2023-01-24T16:33:18;17.60;;;7.03;;
75768;SDS011;64379;48.888;8.330;2023-01-24T16:35:44;17.35;;;6.93;;
75768;SDS011;64379;48.888;8.330;2023-01-24T16:38:11;18.67;;;7.72;;
75768;SDS011;64379;48.888;8.330;2023-01-24T16:40:38;15.70;;;7.00;;
75768;SDS011;64379;48.888;8.330;2023-01-24T16:43:04;18.17;;;6.90;;
75768;SDS011;64379;48.888;8.330;2023-01-24T16:47:59;12.70;;;5.47;;
75768;SDS011;64379;48.888;8.330;2023-01-24T16:50:25;16.90;;;6.97;;
75768;SDS011;64379;48.888;8.330;2023-01-24T16:52:51;19.35;;;6.88;;
75768;SDS011;64379;48.888;8.330;2023-01-24T16:55:17;14.55;;;6.82;;
75768;SDS011;64379;48.888;8.330;2023-01-24T16:57:44;17.42;;;7.85;;
75768;SDS011;64379;48.888;8.330;2023-01-24T17:00:10;19.33;;;7.28;;
75768;SDS011;64379;48.888;8.330;2023-01-24T17:02:40;20.20;;;8.43;;
75768;SDS011;64379;48.888;8.330;2023-01-24T17:05:07;18.27;;;7.50;;
75768;SDS011;64379;48.888;8.330;2023-01-24T17:07:33;18.55;;;7.80;;
75768;SDS011;64379;48.888;8.330;2023-01-24T17:09:59;15.13;;;7.50;;
75768;SDS011;64379;48.888;8.330;2023-01-24T17:12:27;13.88;;;6.43;;
75768;SDS011;64379;48.888;8.330;2023-01-24T17:14:53;14.13;;;6.63;;
75768;SDS011;64379;48.888;8.330;2023-01-24T17:17:19;17.73;;;7.25;;
75768;SDS011;64379;48.888;8.330;2023-01-24T17:19:44;21.85;;;7.50;;
75768;SDS011;64379;48.888;8.330;2023-01-24T17:22:10;16.52;;;7.40;;
75768;SDS011;64379;48.888;8.330;2023-01-24T17:24:36;18.13;;;8.30;;
75768;SDS011;64379;48.888;8.330;2023-01-24T17:27:02;16.90;;;7.88;;
75768;SDS011;64379;48.888;8.330;2023-01-24T17:29:27;17.67;;;7.40;;
75768;SDS011;64379;48.888;8.330;2023-01-24T17:31:53;20.80;;;8.77;;
75768;SDS011;64379;48.888;8.330;2023-01-24T17:34:20;18.95;;;8.05;;